METAR Data
IDs: Format: Raw Decoded Include TAF

Data at: 1535 UTC 03 Dec 2021

KPDX 031507Z 00000KT 10SM FEW008 OVC013 03/01 A3029 RMK AO2 T00330011
KPDX 031453Z 00000KT 10SM SCT008 03/01 A3029 RMK AO2 SLP255 T00330011 58008
KPDX 031400Z 00000KT 10SM FEW008 SCT050 SCT250 03/01 A3030 RMK AO2 T00330011
KPDX 031353Z 32005KT 10SM SCT050 BKN250 03/01 A3030 RMK AO2 SLP260 T00330006
KPDX 031253Z 34003KT 10SM FEW050 03/01 A3031 RMK AO2 SLP263 T00330011
KPDX 031153Z 32005KT 10SM CLR 04/01 A3031 RMK AO2 SLP262 T00390011 10078 20039 56007
KPDX 031053Z 33004KT 10SM CLR 05/01 A3032 RMK AO2 SLP264 T00500011
KPDX 030953Z 34004KT 10SM FEW250 06/01 A3032 RMK AO2 SLP265 T00560011
KPDX 030853Z 32006KT 10SM BKN230 06/01 A3033 RMK AO2 SLP269 T00610011 58005
KPDX 030753Z 32007KT 10SM OVC220 06/02 A3035 RMK AO2 SLP275 T00610017 401220061
KPDX 030653Z 31008KT 10SM BKN220 OVC250 07/02 A3034 RMK AO2 SLP274 T00720017
KPDX 030553Z 31006KT 10SM OVC210 07/02 A3034 RMK AO2 SLP274 T00720022 10106 20072 55002
KPDX 030453Z 33007KT 10SM FEW050 OVC210 07/03 A3034 RMK AO2 SLP273 T00720033
KPDX 030353Z 30007KT 10SM FEW050 BKN230 08/03 A3034 RMK AO2 SLP275 T00830033
KPDX 030253Z 31008KT 10SM SCT050 BKN230 08/04 A3035 RMK AO2 SLP276 T00830039 53009
KPDX 030153Z 33005KT 10SM SCT050 BKN230 08/03 A3033 RMK AO2 SLP269 T00830033
KPDX 030053Z 35005KT 10SM OVC050 11/03 A3033 RMK AO2 SLP269 T01060033
KPDX 022353Z 33005KT 10SM OVC055 11/03 A3032 RMK AO2 SLP267 T01060033 10122 20106 55000
KPDX 022253Z 33007KT 10SM OVC055 11/03 A3031 RMK AO2 SLP265 T01110028
KPDX 022153Z 32008KT 10SM FEW025 SCT044 OVC060 12/03 A3032 RMK AO2 SLP266 T01170033
KPDX 022053Z 34007G15KT 10SM FEW025 SCT047 OVC055 12/04 A3032 RMK AO2 SLP266 T01170039 53002
KPDX 021953Z 32008KT 10SM FEW025 OVC050 12/06 A3032 RMK AO2 SLP266 T01220061
KPDX 021853Z 32009KT 10SM FEW025 BKN050 BKN220 12/06 A3031 RMK AO2 SLP265 T01170061
KPDX 021753Z 28005KT 10SM SCT045 BKN210 12/07 A3031 RMK AO2 SLP264 T01170072 10117 20100 53019
KPDX 021653Z 30004KT 10SM FEW030 BKN045 BKN250 11/07 A3029 RMK AO2 SLP256 T01060067
KPDX 021553Z 31004KT 10SM SCT030 BKN050 BKN250 11/07 A3027 RMK AO2 SLP250 T01060072
KPDX 021453Z 32005KT 10SM SCT036 BKN045 BKN250 11/07 A3026 RMK AO2 SLP245 T01060072 53012
KPDX 021353Z 32008KT 10SM BKN033 BKN043 12/07 A3025 RMK AO2 SLP242 T01170072
KPDX 021253Z 24004KT 10SM BKN024 BKN050 11/09 A3023 RMK AO2 SLP236 T01060089
KPDX 021233Z 30003KT 10SM BKN024 BKN050 11/09 A3023 RMK AO2 T01110094
KPDX 021153Z 00000KT 10SM BKN055 11/09 A3022 RMK AO2 SLP233 T01110094 10122 20111 53002
KPDX 021053Z 00000KT 10SM SCT037 OVC050 12/10 A3021 RMK AO2 SLP230 T01170100
KPDX 020953Z 00000KT 10SM BKN033 OVC049 12/10 A3022 RMK AO2 SLP230 T01170100
KPDX 020853Z 00000KT 10SM BKN042 OVC110 12/09 A3022 RMK AO2 SLP230 T01170094 50010
KPDX 020753Z 25004KT 10SM BKN035 OVC095 12/10 A3022 RMK AO2 SLP231 T01220100 401720089
KPDX 020653Z 26004KT 10SM SCT030 OVC095 12/09 A3020 RMK AO2 SLP225 T01170094
KPDX 020553Z 26004KT 10SM OVC100 12/10 A3018 RMK AO2 SLP221 T01220100 10156 20117 53010
KPDX 020453Z 31004KT 10SM BKN100 12/10 A3017 RMK AO2 SLP215 T01220100
KPDX 020353Z 28005KT 10SM BKN100 13/10 A3016 RMK AO2 SLP214 T01280100